Time;durP1;ratioP1;P1;durP2;ratioP2;P2;SDS_P1;SDS_P2;PMS_P1;PMS_P2;Temp;Humidity;BMP_temperature;BMP_pressure;BME280_temperature;BME280_humidity;BME280_pressure;Samples;Min_cycle;Max_cycle;Signal;HPM_P1;HPM_P2
2023/12/29 00:02:00;;;;;;;;;;;;;;;9.58;71.32;100377.38;4974557;28;20009;-69
2023/12/29 00:05:04;;;;;;;;;;;;;;;9.47;71.53;100370.91;4974997;28;19921;-69
2023/12/29 00:08:07;;;;;;;;;;;;;;;9.58;71.55;100362.53;4975722;28;19921;-70
2023/12/29 00:11:16;;;;;;;;;;;;;;;9.59;71.14;100371.22;4975761;28;19920;-70
2023/12/29 00:14:19;;;;;;;;;;;;;;;9.37;71.27;100372.28;4957147;29;19997;-70
2023/12/29 00:17:21;;;;;;;;;;;;;;;9.44;71.55;100373.66;4957466;29;19921;-70
2023/12/29 00:20:24;;;;;;;;;;;;;;;9.34;71.12;100356.78;4957627;29;19925;-70
2023/12/29 00:23:27;;;;;;;;;;;;;;;9.25;71.77;100360.72;4957339;29;20274;-70
2023/12/29 00:26:30;;;;;;;;;;;;;;;9.27;71.96;100363.22;4957738;29;19925;-70
2023/12/29 00:29:34;;;;;;;;;;;;;;;9.26;71.26;100351.13;4957373;28;19921;-69
2023/12/29 00:32:37;;;;;;;;;;;;;;;9.32;71.78;100350.81;4957019;29;20013;-70
2023/12/29 00:35:40;;;;;;;;;;;;;;;9.30;72.03;100356.09;4956189;29;19922;-70
2023/12/29 00:38:43;;;;;;;;;;;;;;;9.39;71.86;100362.63;4956990;29;19921;-70
2023/12/29 00:41:46;;;;;;;;;;;;;;;9.45;71.55;100359.72;4956779;28;19970;-70
2023/12/29 00:44:50;;;;;;;;;;;;;;;9.52;71.30;100363.69;4957657;29;19969;-70
2023/12/29 00:47:54;;;;;;;;;;;;;;;9.53;71.38;100367.16;4956976;29;20241;-70
2023/12/29 00:50:56;;;;;;;;;;;;;;;9.59;71.05;100364.22;4956025;29;19940;-70
2023/12/29 00:53:59;;;;;;;;;;;;;;;9.74;70.89;100370.44;4956137;29;19925;-70
2023/12/29 00:57:02;;;;;;;;;;;;;;;9.71;70.79;100373.22;4956489;29;19960;-70
2023/12/29 01:00:08;;;;;;;;;;;;;;;9.65;71.09;100363.06;4956624;29;20351;-70
2023/12/29 01:03:11;;;;;;;;;;;;;;;9.75;71.19;100364.28;4955806;29;20510;-70
2023/12/29 01:06:14;;;;;;;;;;;;;;;9.77;71.13;100354.63;4956615;29;19946;-70
2023/12/29 01:09:16;;;;;;;;;;;;;;;9.83;71.12;100349.09;4955663;29;19921;-70
2023/12/29 01:12:19;;;;;;;;;;;;;;;9.90;70.74;100347.84;4955498;29;20313;-70
2023/12/29 01:15:22;;;;;;;;;;;;;;;9.86;71.21;100345.44;4955863;29;19961;-70
2023/12/29 01:18:25;;;;;;;;;;;;;;;9.94;70.94;100344.13;4956224;29;19969;-70
2023/12/29 01:21:28;;;;;;;;;;;;;;;9.87;71.12;100326.25;4944362;29;19924;-70
2023/12/29 01:24:32;;;;;;;;;;;;;;;9.99;70.82;100325.63;4944322;29;19921;-69
2023/12/29 01:27:35;;;;;;;;;;;;;;;10.01;70.64;100314.13;4944077;29;20425;-70
2023/12/29 01:30:38;;;;;;;;;;;;;;;10.05;70.42;100304.41;4944610;29;19969;-70
2023/12/29 01:33:41;;;;;;;;;;;;;;;9.98;70.11;100303.84;4955922;29;19937;-70
2023/12/29 01:36:44;;;;;;;;;;;;;;;10.05;70.14;100288.72;4956147;29;19922;-70
2023/12/29 01:39:47;;;;;;;;;;;;;;;10.12;69.89;100294.47;4955946;29;19985;-70
2023/12/29 01:42:50;;;;;;;;;;;;;;;10.21;69.64;100299.16;4955599;29;19933;-70
2023/12/29 01:45:53;;;;;;;;;;;;;;;10.20;69.30;100302.72;4956113;29;19921;-70
2023/12/29 01:48:57;;;;;;;;;;;;;;;10.09;69.17;100299.84;4944119;29;19921;-70
2023/12/29 01:52:01;;;;;;;;;;;;;;;10.12;68.85;100291.84;4955738;29;19929;-70
2023/12/29 01:55:04;;;;;;;;;;;;;;;10.18;69.10;100287.13;4954962;29;19968;-70
2023/12/29 01:58:07;;;;;;;;;;;;;;;9.95;68.93;100277.06;4955621;29;19922;-70
2023/12/29 02:01:11;;;;;;;;;;;;;;;10.04;69.02;100292.25;4943775;29;19922;-70
2023/12/29 02:04:15;;;;;;;;;;;;;;;9.99;68.98;100289.06;4955713;29;19925;-70
2023/12/29 02:07:18;;;;;;;;;;;;;;;9.98;68.95;100284.72;4943878;29;20009;-70
2023/12/29 02:10:23;;;;;;;;;;;;;;;10.03;69.20;100293.19;4955738;29;19925;-70
2023/12/29 02:13:26;;;;;;;;;;;;;;;10.06;69.03;100284.34;4943393;29;19977;-70
2023/12/29 02:16:32;;;;;;;;;;;;;;;9.89;69.21;100282.59;4955482;29;19921;-70
2023/12/29 02:19:43;;;;;;;;;;;;;;;10.01;69.10;100285.41;4943505;29;19921;-70
2023/12/29 02:22:47;;;;;;;;;;;;;;;9.98;69.04;100288.19;4954817;29;19926;-70
2023/12/29 02:25:53;;;;;;;;;;;;;;;10.07;69.12;100291.25;4943498;29;19921;-70
2023/12/29 02:28:59;;;;;;;;;;;;;;;9.97;69.10;100281.28;4955008;29;19921;-70
2023/12/29 02:32:04;;;;;;;;;;;;;;;10.11;69.01;100282.31;4955401;29;19922;-70
2023/12/29 02:35:12;;;;;;;;;;;;;;;10.24;68.48;100283.31;4943438;29;20029;-70
2023/12/29 02:38:15;;;;;;;;;;;;;;;10.32;68.07;100262.88;4943222;29;20001;-70
2023/12/29 02:41:18;;;;;;;;;;;;;;;10.19;67.99;100267.06;4954976;28;20345;-71
2023/12/29 02:44:22;;;;;;;;;;;;;;;10.07;68.68;100270.34;4954967;29;20385;-70
2023/12/29 02:47:25;;;;;;;;;;;;;;;10.12;68.71;100260.50;4943403;29;20381;-70
2023/12/29 02:50:28;;;;;;;;;;;;;;;10.18;68.61;100268.00;4954865;29;20378;-69
2023/12/29 02:53:31;;;;;;;;;;;;;;;10.17;68.64;100267.13;4956675;28;19920;-70
2023/12/29 02:56:35;;;;;;;;;;;;;;;10.18;68.73;100271.44;4958724;29;20401;-70
2023/12/29 02:59:38;;;;;;;;;;;;;;;10.24;68.63;100272.88;4959173;29;19921;-70
2023/12/29 03:02:43;;;;;;;;;;;;;;;10.18;68.51;100263.63;4947222;29;19925;-70
2023/12/29 03:05:46;;;;;;;;;;;;;;;10.23;68.87;100252.91;4959072;29;19921;-70
2023/12/29 03:08:50;;;;;;;;;;;;;;;10.36;68.62;100253.09;4947047;29;20037;-70
2023/12/29 03:11:53;;;;;;;;;;;;;;;10.29;68.70;100242.13;4958879;29;19969;-70
2023/12/29 03:14:56;;;;;;;;;;;;;;;10.21;68.86;100232.09;4946962;29;20377;-70
2023/12/29 03:17:59;;;;;;;;;;;;;;;10.07;69.26;100245.06;4957778;29;20044;-70
2023/12/29 03:21:02;;;;;;;;;;;;;;;10.01;69.76;100240.16;4958762;29;19924;-70
2023/12/29 03:24:05;;;;;;;;;;;;;;;10.12;69.73;100224.75;4958623;29;20278;-70
2023/12/29 03:27:08;;;;;;;;;;;;;;;10.10;69.86;100225.75;4947028;29;20377;-70
2023/12/29 03:30:12;;;;;;;;;;;;;;;10.19;69.52;100223.47;4958283;29;19921;-70
2023/12/29 03:33:16;;;;;;;;;;;;;;;10.27;69.24;100243.97;4958570;29;19920;-70
2023/12/29 03:36:19;;;;;;;;;;;;;;;10.12;69.62;100245.66;4946720;29;19925;-70
2023/12/29 03:39:23;;;;;;;;;;;;;;;10.14;69.84;100230.72;4946637;29;19978;-70
2023/12/29 03:42:26;;;;;;;;;;;;;;;10.05;70.12;100241.69;4957874;28;19973;-70
2023/12/29 03:45:30;;;;;;;;;;;;;;;10.10;69.96;100238.81;4958356;29;19926;-70
2023/12/29 03:48:33;;;;;;;;;;;;;;;10.01;70.23;100229.72;4958468;29;19965;-70
2023/12/29 03:51:35;;;;;;;;;;;;;;;10.07;70.05;100234.59;4946361;29;19945;-70
2023/12/29 03:54:38;;;;;;;;;;;;;;;10.13;69.90;100229.03;4946042;29;19949;-70
2023/12/29 03:57:42;;;;;;;;;;;;;;;10.11;69.76;100225.66;4958004;29;19922;-70
2023/12/29 04:00:45;;;;;;;;;;;;;;;10.27;69.45;100235.31;4958054;29;20017;-70
2023/12/29 04:03:48;;;;;;;;;;;;;;;10.13;69.75;100243.88;4945557;28;19925;-70
2023/12/29 04:06:51;;;;;;;;;;;;;;;10.12;69.90;100247.44;4957952;29;19921;-70
2023/12/29 04:09:54;;;;;;;;;;;;;;;10.12;69.89;100242.22;4957835;29;19921;-70
2023/12/29 04:12:57;;;;;;;;;;;;;;;10.10;69.85;100223.16;4957714;29;19926;-70
2023/12/29 04:15:59;;;;;;;;;;;;;;;10.02;70.18;100224.41;4956792;29;19989;-70
2023/12/29 04:19:02;;;;;;;;;;;;;;;10.15;69.66;100219.38;4945799;29;19964;-70
2023/12/29 04:22:05;;;;;;;;;;;;;;;10.09;69.84;100219.69;4957535;29;19968;-70
2023/12/29 04:25:09;;;;;;;;;;;;;;;10.08;70.04;100204.09;4957501;29;20409;-70
2023/12/29 04:28:13;;;;;;;;;;;;;;;10.13;69.91;100202.09;4957475;29;20021;-70
2023/12/29 04:31:16;;;;;;;;;;;;;;;10.09;69.88;100206.63;4957512;29;19936;-70
2023/12/29 04:34:19;;;;;;;;;;;;;;;10.21;69.82;100194.66;4956918;29;20494;-70
2023/12/29 04:37:22;;;;;;;;;;;;;;;10.23;69.52;100198.03;4956928;29;19942;-70
2023/12/29 04:40:25;;;;;;;;;;;;;;;10.15;69.67;100195.84;4957343;29;20014;-70
2023/12/29 04:43:28;;;;;;;;;;;;;;;10.17;69.73;100212.25;4921341;29;19989;-70
2023/12/29 04:46:31;;;;;;;;;;;;;;;10.16;69.86;100202.75;4918712;29;19922;-70
2023/12/29 04:49:34;;;;;;;;;;;;;;;10.27;69.56;100196.94;4918932;29;19922;-69
2023/12/29 04:52:37;;;;;;;;;;;;;;;10.21;69.68;100199.88;4918938;29;19922;-70
2023/12/29 04:55:40;;;;;;;;;;;;;;;10.23;69.71;100211.09;4918877;29;19926;-70
2023/12/29 04:58:43;;;;;;;;;;;;;;;10.13;69.93;100212.53;4919115;29;19998;-70
2023/12/29 05:01:46;;;;;;;;;;;;;;;10.23;69.99;100226.75;4918799;29;20006;-70
2023/12/29 05:04:49;;;;;;;;;;;;;;;10.23;70.00;100221.53;4918648;29;19926;-70
2023/12/29 05:07:51;;;;;;;;;;;;;;;10.14;70.27;100230.72;4917739;29;20323;-70
2023/12/29 05:10:55;;;;;;;;;;;;;;;10.15;70.23;100221.97;4918552;29;19970;-70
2023/12/29 05:13:58;;;;;;;;;;;;;;;10.11;70.31;100214.38;4918532;29;19961;-70
2023/12/29 05:17:01;;;;;;;;;;;;;;;10.23;70.21;100213.69;4917839;29;20385;-70
2023/12/29 05:20:04;;;;;;;;;;;;;;;10.21;70.16;100220.78;4918287;29;19922;-70
2023/12/29 05:23:07;;;;;;;;;;;;;;;10.16;70.21;100218.44;4918281;29;20303;-70
2023/12/29 05:26:10;;;;;;;;;;;;;;;10.14;70.61;100214.22;4918174;29;19963;-70
2023/12/29 05:29:13;;;;;;;;;;;;;;;10.11;70.66;100222.22;4917864;29;20424;-70
2023/12/29 05:32:17;;;;;;;;;;;;;;;10.17;70.50;100220.09;4918186;29;19943;-70
2023/12/29 05:35:20;;;;;;;;;;;;;;;10.16;70.58;100218.44;4918439;29;20343;-70
2023/12/29 05:38:23;;;;;;;;;;;;;;;10.21;70.42;100220.78;4916977;29;19969;-70
2023/12/29 05:41:26;;;;;;;;;;;;;;;10.16;70.60;100201.91;4919789;29;20431;-71
2023/12/29 05:44:28;;;;;;;;;;;;;;;10.16;70.67;100202.75;4955984;29;19925;-71
2023/12/29 05:47:31;;;;;;;;;;;;;;;10.30;70.27;100203.78;4955306;29;19942;-71
2023/12/29 05:50:34;;;;;;;;;;;;;;;10.18;70.63;100205.28;4955925;29;19922;-71
2023/12/29 05:53:39;;;;;;;;;;;;;;;10.32;70.51;100207.16;4955490;29;19969;-71
2023/12/29 05:56:42;;;;;;;;;;;;;;;10.12;70.85;100208.25;4956119;29;19969;-70
2023/12/29 05:59:45;;;;;;;;;;;;;;;10.32;70.39;100212.38;4955347;29;20333;-71
2023/12/29 06:02:48;;;;;;;;;;;;;;;10.15;71.03;100213.31;4955697;29;19965;-71
2023/12/29 06:05:53;;;;;;;;;;;;;;;10.16;71.28;100204.53;4955369;29;19926;-71
2023/12/29 06:08:56;;;;;;;;;;;;;;;10.14;71.51;100198.53;4955531;29;19921;-71
2023/12/29 06:11:59;;;;;;;;;;;;;;;10.14;71.41;100193.31;4955619;29;19969;-71
2023/12/29 06:15:02;;;;;;;;;;;;;;;10.19;71.25;100199.13;4955646;29;19936;-70
2023/12/29 06:18:05;;;;;;;;;;;;;;;10.22;71.30;100206.81;4955705;29;19922;-70
2023/12/29 06:21:08;;;;;;;;;;;;;;;10.23;71.64;100203.25;4955235;29;19921;-70
2023/12/29 06:24:12;;;;;;;;;;;;;;;10.27;71.78;100202.16;4955197;29;19945;-71
2023/12/29 06:27:16;;;;;;;;;;;;;;;10.21;71.76;100213.81;4955233;28;20285;-71
2023/12/29 06:30:20;;;;;;;;;;;;;;;10.34;71.59;100210.50;4955293;29;19962;-70
2023/12/29 06:33:26;;;;;;;;;;;;;;;10.45;71.59;100214.22;4970933;28;19932;-71
2023/12/29 06:36:29;;;;;;;;;;;;;;;10.47;71.23;100212.38;4972090;28;20021;-70
2023/12/29 06:39:32;;;;;;;;;;;;;;;10.47;71.56;100206.28;4971593;28;20392;-71
2023/12/29 06:42:36;;;;;;;;;;;;;;;10.46;71.57;100217.66;4974046;28;20388;-71
2023/12/29 06:45:40;;;;;;;;;;;;;;;10.43;71.79;100216.09;4974088;28;19925;-70
2023/12/29 06:48:43;;;;;;;;;;;;;;;10.34;72.33;100219.22;4973854;28;19977;-70
2023/12/29 06:51:46;;;;;;;;;;;;;;;10.30;72.80;100216.84;4973755;28;20008;-69
2023/12/29 06:54:52;;;;;;;;;;;;;;;10.38;72.70;100218.09;4973507;28;19920;-71
2023/12/29 06:57:55;;;;;;;;;;;;;;;10.37;72.76;100226.00;4973451;28;20444;-69
2023/12/29 07:01:00;;;;;;;;;;;;;;;10.42;73.07;100229.22;4973667;28;19921;-69
2023/12/29 07:04:03;;;;;;;;;;;;;;;10.29;73.48;100220.41;4973514;28;19964;-70
2023/12/29 07:07:10;;;;;;;;;;;;;;;10.37;73.55;100216.44;4973722;28;19921;-72
2023/12/29 07:10:14;;;;;;;;;;;;;;;10.44;73.10;100225.59;4973079;28;19942;-69
2023/12/29 07:13:17;;;;;;;;;;;;;;;10.62;72.67;100233.31;4973388;28;19921;-72
2023/12/29 07:16:20;;;;;;;;;;;;;;;10.62;72.69;100230.69;4973440;28;20337;-71
2023/12/29 07:19:23;;;;;;;;;;;;;;;10.36;73.39;100224.34;4958745;28;19921;-71
2023/12/29 07:22:27;;;;;;;;;;;;;;;10.41;73.60;100227.56;4971610;28;19929;-71
2023/12/29 07:25:30;;;;;;;;;;;;;;;10.45;73.76;100223.81;4971921;28;19949;-71
2023/12/29 07:28:33;;;;;;;;;;;;;;;10.39;73.83;100235.47;4972895;28;19920;-70
2023/12/29 07:31:39;;;;;;;;;;;;;;;10.43;73.87;100226.53;4972567;28;19921;-71
2023/12/29 07:34:44;;;;;;;;;;;;;;;10.37;74.15;100233.84;4972665;28;19985;-70
2023/12/29 07:37:47;;;;;;;;;;;;;;;10.35;74.16;100228.72;4961286;28;19920;-71
2023/12/29 07:40:51;;;;;;;;;;;;;;;10.51;73.92;100238.34;4976274;28;20028;-69
2023/12/29 07:43:54;;;;;;;;;;;;;;;10.45;74.01;100224.66;4937090;29;19965;-70
2023/12/29 07:46:58;;;;;;;;;;;;;;;10.43;74.06;100223.94;4938735;29;20421;-70
2023/12/29 07:50:01;;;;;;;;;;;;;;;10.45;74.11;100226.44;4938221;29;19926;-70
2023/12/29 07:53:06;;;;;;;;;;;;;;;10.41;74.15;100219.72;4938847;29;19921;-70
2023/12/29 07:56:10;;;;;;;;;;;;;;;10.44;74.26;100211.69;4938304;29;19966;-71
2023/12/29 07:59:13;;;;;;;;;;;;;;;10.52;73.87;100208.63;4937352;29;19921;-70
2023/12/29 08:02:16;;;;;;;;;;;;;;;10.47;73.58;100206.28;4938099;29;20024;-70
2023/12/29 08:05:19;;;;;;;;;;;;;;;10.66;73.35;100206.09;4938616;29;19969;-72
2023/12/29 08:08:22;;;;;;;;;;;;;;;10.68;73.05;100205.03;4938325;29;19922;-72
2023/12/29 08:11:25;;;;;;;;;;;;;;;10.60;73.42;100202.03;4937728;29;20034;-71
2023/12/29 08:14:29;;;;;;;;;;;;;;;10.62;73.47;100215.84;4937846;29;20021;-72
2023/12/29 08:17:32;;;;;;;;;;;;;;;10.69;73.47;100203.28;4937433;29;19921;-70
2023/12/29 08:20:35;;;;;;;;;;;;;;;10.68;73.31;100198.97;4937391;29;20010;-70
2023/12/29 08:23:38;;;;;;;;;;;;;;;10.73;73.51;100199.56;4936000;29;19930;-68
2023/12/29 08:26:45;;;;;;;;;;;;;;;10.73;73.59;100201.34;4937013;29;19922;-69
2023/12/29 08:29:48;;;;;;;;;;;;;;;10.80;73.32;100213.97;4937029;29;20014;-69
2023/12/29 08:32:51;;;;;;;;;;;;;;;10.80;73.09;100208.72;4937129;29;19983;-68
2023/12/29 08:36:00;;;;;;;;;;;;;;;10.82;73.26;100221.72;4936949;29;19994;-70
2023/12/29 08:39:03;;;;;;;;;;;;;;;10.75;73.62;100218.59;4937088;29;19921;-70
2023/12/29 08:42:06;;;;;;;;;;;;;;;10.61;74.24;100218.56;4936765;28;19925;-69
2023/12/29 08:45:09;;;;;;;;;;;;;;;10.71;74.21;100219.72;4937407;29;19973;-69
2023/12/29 08:48:12;;;;;;;;;;;;;;;10.60;74.86;100227.34;4937212;29;19925;-69
2023/12/29 08:51:16;;;;;;;;;;;;;;;10.60;75.28;100209.88;4936584;29;20000;-70
2023/12/29 08:58:08;;;;;;;;;;;;;;;10.64;75.39;100194.88;4936110;29;20009;-71
2023/12/29 09:01:11;;;;;;;;;;;;;;;10.66;75.38;100185.16;4936454;29;19971;-71
2023/12/29 09:04:14;;;;;;;;;;;;;;;10.68;75.39;100186.75;4937155;29;19974;-71
2023/12/29 09:07:17;;;;;;;;;;;;;;;10.74;75.03;100206.47;4937048;29;19926;-71
2023/12/29 09:10:21;;;;;;;;;;;;;;;10.76;74.90;100212.47;4937395;29;20322;-71
2023/12/29 09:13:26;;;;;;;;;;;;;;;10.75;74.84;100208.16;4937085;29;19921;-72
2023/12/29 09:16:29;;;;;;;;;;;;;;;10.79;75.00;100207.06;4937224;29;20009;-71
2023/12/29 09:19:32;;;;;;;;;;;;;;;10.81;74.95;100189.47;4937041;29;19943;-71
2023/12/29 09:22:35;;;;;;;;;;;;;;;10.80;74.79;100198.28;4937193;29;19921;-71
2023/12/29 09:25:38;;;;;;;;;;;;;;;10.85;74.83;100209.31;4936343;29;19978;-72
2023/12/29 09:28:42;;;;;;;;;;;;;;;10.83;74.96;100213.78;4935906;29;19922;-73
2023/12/29 09:31:45;;;;;;;;;;;;;;;11.01;74.58;100216.25;4934381;29;19921;-71
2023/12/29 09:34:49;;;;;;;;;;;;;;;10.85;74.76;100211.09;4934845;29;19933;-72
2023/12/29 09:37:52;;;;;;;;;;;;;;;10.99;74.38;100228.59;4938019;29;20450;-71
2023/12/29 09:41:04;;;;;;;;;;;;;;;10.90;74.51;100230.78;4942276;29;19962;-71
2023/12/29 09:44:12;;;;;;;;;;;;;;;10.77;75.09;100240.28;4933455;29;19974;-71
2023/12/29 09:47:19;;;;;;;;;;;;;;;10.75;75.20;100242.13;4935565;29;19962;-71
2023/12/29 09:50:23;;;;;;;;;;;;;;;10.69;75.46;100253.81;4933237;29;19926;-71
2023/12/29 09:53:49;;;;;;;;;;;;;;;10.72;75.54;100252.81;4934544;29;19921;-71
2023/12/29 09:57:01;;;;;;;;;;;;;;;10.70;75.78;100257.28;4937169;29;19970;-72
2023/12/29 10:00:34;;;;;;;;;;;;;;;10.74;75.63;100250.94;4926774;29;20377;-70
2023/12/29 10:03:37;;;;;;;;;;;;;;;10.75;75.80;100257.84;4914805;29;19998;-72
2023/12/29 10:06:41;;;;;;;;;;;;;;;10.72;75.71;100260.66;4930543;29;20013;-70
2023/12/29 10:09:45;;;;;;;;;;;;;;;10.76;75.75;100253.47;4941882;29;19966;-73
2023/12/29 10:12:49;;;;;;;;;;;;;;;10.70;75.90;100268.56;4934401;29;20295;-72
2023/12/29 10:16:14;;;;;;;;;;;;;;;10.75;75.88;100251.75;4934468;29;20357;-72
2023/12/29 10:19:20;;;;;;;;;;;;;;;10.77;76.08;100250.75;4934254;29;19962;-71
2023/12/29 10:22:30;;;;;;;;;;;;;;;10.70;76.03;100265.13;4916407;29;19922;-71
2023/12/29 10:25:33;;;;;;;;;;;;;;;10.67;76.31;100255.66;4935302;29;19922;-71
2023/12/29 10:28:36;;;;;;;;;;;;;;;10.80;76.29;100253.19;4933042;29;19925;-72
2023/12/29 10:31:39;;;;;;;;;;;;;;;10.81;76.01;100239.19;4921581;29;20353;-72
2023/12/29 10:34:43;;;;;;;;;;;;;;;10.84;76.33;100252.06;4933900;29;19991;-71
2023/12/29 10:37:47;;;;;;;;;;;;;;;10.86;76.36;100254.63;4933133;29;19922;-70
2023/12/29 10:40:50;;;;;;;;;;;;;;;10.87;76.72;100251.06;4933717;29;20287;-72
2023/12/29 10:43:57;;;;;;;;;;;;;;;10.91;76.71;100258.66;4953581;29;20290;-72
2023/12/29 10:47:10;;;;;;;;;;;;;;;10.83;76.81;100263.47;4969554;28;19925;-73
2023/12/29 10:50:13;;;;;;;;;;;;;;;10.86;77.15;100252.84;4977627;28;19921;-72
2023/12/29 10:53:19;;;;;;;;;;;;;;;10.92;77.16;100262.13;4974306;28;20023;-71
2023/12/29 10:56:23;;;;;;;;;;;;;;;10.93;76.86;100238.47;4972666;28;19969;-71
2023/12/29 10:59:26;;;;;;;;;;;;;;;10.94;76.61;100250.63;4979150;28;19920;-71
2023/12/29 11:02:30;;;;;;;;;;;;;;;10.96;76.52;100245.31;4971173;28;20309;-70
2023/12/29 11:05:33;;;;;;;;;;;;;;;11.00;76.85;100246.78;4970558;28;19941;-71
2023/12/29 11:08:37;;;;;;;;;;;;;;;11.01;76.19;100253.75;4970915;28;19969;-72
2023/12/29 11:11:41;;;;;;;;;;;;;;;11.07;76.21;100247.28;4971707;28;19928;-74
2023/12/29 11:14:47;;;;;;;;;;;;;;;11.07;75.75;100242.03;4961680;28;19921;-75
2023/12/29 11:17:52;;;;;;;;;;;;;;;10.97;75.78;100246.97;4974305;28;19960;-75
2023/12/29 11:20:56;;;;;;;;;;;;;;;10.88;76.02;100231.81;4976644;28;20231;-74
2023/12/29 11:23:59;;;;;;;;;;;;;;;10.82;75.65;100221.72;4976333;28;20235;-72
2023/12/29 11:27:03;;;;;;;;;;;;;;;10.94;75.49;100215.75;4974363;28;19921;-71
2023/12/29 11:30:07;;;;;;;;;;;;;;;10.91;75.18;100216.81;4976209;28;19925;-71
2023/12/29 11:33:15;;;;;;;;;;;;;;;11.01;75.17;100213.63;4976216;28;19921;-71
2023/12/29 11:36:22;;;;;;;;;;;;;;;11.09;74.21;100204.41;4973692;28;19924;-71
2023/12/29 11:39:48;;;;;;;;;;;;;;;11.12;73.93;100198.97;4974554;28;20276;-71
2023/12/29 11:42:53;;;;;;;;;;;;;;;11.10;73.76;100194.78;4974985;28;20301;-72
2023/12/29 11:45:57;;;;;;;;;;;;;;;11.16;73.49;100182.16;4976020;28;20647;-72
2023/12/29 11:49:04;;;;;;;;;;;;;;;11.14;73.11;100180.59;4978057;28;19924;-71
2023/12/29 11:52:07;;;;;;;;;;;;;;;11.17;72.76;100191.72;4974492;28;19920;-71
2023/12/29 11:55:14;;;;;;;;;;;;;;;11.22;72.72;100191.41;4974887;28;19924;-72
2023/12/29 11:58:28;;;;;;;;;;;;;;;11.27;72.15;100188.53;4973414;28;19921;-71
2023/12/29 12:01:35;;;;;;;;;;;;;;;11.31;72.13;100192.66;4974862;28;20396;-71
2023/12/29 12:04:42;;;;;;;;;;;;;;;11.10;71.84;100200.00;4961894;28;20408;-71
2023/12/29 12:07:45;;;;;;;;;;;;;;;11.08;72.42;100196.66;4974382;28;19964;-71
2023/12/29 12:10:48;;;;;;;;;;;;;;;10.99;72.17;100186.72;4974230;28;20016;-71
2023/12/29 12:13:52;;;;;;;;;;;;;;;11.03;72.42;100188.22;4956486;29;19922;-71
2023/12/29 12:16:55;;;;;;;;;;;;;;;11.07;72.52;100193.19;4944647;29;19970;-74
2023/12/29 12:20:09;;;;;;;;;;;;;;;11.11;71.97;100191.25;4955071;29;20334;-71
2023/12/29 12:23:19;;;;;;;;;;;;;;;11.08;72.16;100192.25;4956609;29;20019;-72
2023/12/29 12:26:25;;;;;;;;;;;;;;;11.13;72.14;100186.75;4964313;28;19921;-72
2023/12/29 12:29:29;;;;;;;;;;;;;;;11.05;72.29;100191.59;4974788;28;19921;-72
2023/12/29 12:32:32;;;;;;;;;;;;;;;11.10;72.46;100197.38;4974831;28;19980;-72
2023/12/29 12:35:37;;;;;;;;;;;;;;;11.06;72.54;100178.41;4977190;28;20008;-72
2023/12/29 12:38:51;;;;;;;;;;;;;;;11.12;72.39;100187.69;4975409;28;20387;-72
2023/12/29 12:41:54;;;;;;;;;;;;;;;11.16;72.24;100189.16;4974819;28;19925;-71
2023/12/29 12:45:11;;;;;;;;;;;;;;;11.09;72.37;100187.88;4975272;28;19985;-70
2023/12/29 12:48:21;;;;;;;;;;;;;;;11.14;72.55;100191.06;4975260;28;19920;-70
2023/12/29 12:51:24;;;;;;;;;;;;;;;11.13;72.93;100184.13;4974996;28;20052;-69
2023/12/29 12:54:28;;;;;;;;;;;;;;;11.08;72.73;100175.72;4973965;28;19920;-69
2023/12/29 12:57:31;;;;;;;;;;;;;;;11.07;73.24;100179.25;4975102;28;20371;-69
2023/12/29 13:00:34;;;;;;;;;;;;;;;11.09;73.17;100185.25;4974948;28;19975;-70
2023/12/29 13:03:38;;;;;;;;;;;;;;;11.19;73.31;100173.28;4984952;28;19981;-69
2023/12/29 13:06:46;;;;;;;;;;;;;;;11.21;73.26;100175.81;4975019;28;19920;-69
2023/12/29 13:09:50;;;;;;;;;;;;;;;11.12;73.90;100182.44;4974643;28;19921;-73
2023/12/29 13:12:54;;;;;;;;;;;;;;;11.23;73.66;100174.81;4975237;28;19925;-71
2023/12/29 13:15:57;;;;;;;;;;;;;;;11.32;73.38;100189.94;4974562;28;20009;-68
2023/12/29 13:19:20;;;;;;;;;;;;;;;11.17;73.97;100185.63;4972411;28;19920;-70
2023/12/29 13:22:23;;;;;;;;;;;;;;;11.21;74.29;100163.56;4973989;28;19961;-70
2023/12/29 13:25:27;;;;;;;;;;;;;;;11.19;74.42;100168.06;4973820;28;19921;-69
2023/12/29 13:28:32;;;;;;;;;;;;;;;11.17;74.75;100160.31;4974492;28;19921;-70
2023/12/29 13:31:35;;;;;;;;;;;;;;;11.13;74.88;100158.78;4962172;28;19936;-70
2023/12/29 13:34:57;;;;;;;;;;;;;;;11.16;74.83;100149.91;4974339;28;19921;-70
2023/12/29 13:38:10;;;;;;;;;;;;;;;11.35;74.83;100149.63;4973687;28;19925;-70
2023/12/29 13:41:14;;;;;;;;;;;;;;;11.17;74.72;100146.38;4974277;28;19936;-71
2023/12/29 13:44:19;;;;;;;;;;;;;;;11.19;75.06;100141.88;4935570;29;19977;-70
2023/12/29 13:47:23;;;;;;;;;;;;;;;11.08;75.53;100149.56;4935794;29;19921;-69
2023/12/29 13:50:27;;;;;;;;;;;;;;;11.23;75.22;100143.41;4935756;29;19998;-70
2023/12/29 13:53:30;;;;;;;;;;;;;;;11.32;74.77;100150.66;4935532;29;20312;-70
2023/12/29 13:56:33;;;;;;;;;;;;;;;11.29;74.58;100139.53;4935601;29;19938;-71
2023/12/29 13:59:39;;;;;;;;;;;;;;;11.12;75.24;100145.81;4935437;29;19934;-72
2023/12/29 14:02:50;;;;;;;;;;;;;;;11.12;75.02;100145.81;4923570;29;19930;-70
2023/12/29 14:05:59;;;;;;;;;;;;;;;11.18;75.44;100133.19;4935720;29;19922;-70
2023/12/29 14:09:04;;;;;;;;;;;;;;;11.10;75.32;100140.69;4935154;29;19941;-71
2023/12/29 14:12:06;;;;;;;;;;;;;;;11.23;75.06;100127.69;4935324;29;20450;-70
2023/12/29 14:15:10;;;;;;;;;;;;;;;11.26;74.79;100135.34;4935304;29;19973;-70
2023/12/29 14:18:13;;;;;;;;;;;;;;;11.27;74.42;100131.81;4935302;29;20385;-71
2023/12/29 14:21:23;;;;;;;;;;;;;;;11.19;74.58;100131.41;4935149;29;20323;-71
2023/12/29 14:24:27;;;;;;;;;;;;;;;11.18;74.28;100133.19;4935262;29;19925;-72
2023/12/29 14:27:30;;;;;;;;;;;;;;;11.21;74.06;100144.41;4935274;29;19961;-72
2023/12/29 14:30:34;;;;;;;;;;;;;;;11.16;74.27;100136.84;4935257;29;19925;-71
2023/12/29 14:33:38;;;;;;;;;;;;;;;11.22;74.23;100146.09;4923424;29;19921;-71
2023/12/29 14:36:41;;;;;;;;;;;;;;;11.21;73.84;100150.50;4935168;29;19972;-72
2023/12/29 14:39:48;;;;;;;;;;;;;;;11.18;74.02;100156.75;4934978;29;19926;-70
2023/12/29 14:42:51;;;;;;;;;;;;;;;11.34;74.10;100145.34;4945318;29;19997;-69
2023/12/29 14:45:54;;;;;;;;;;;;;;;11.33;73.76;100151.53;4953936;29;19995;-69
2023/12/29 14:49:00;;;;;;;;;;;;;;;11.31;74.02;100146.38;4953607;28;19987;-69
2023/12/29 14:52:03;;;;;;;;;;;;;;;11.12;74.33;100146.66;4953760;29;19921;-69
2023/12/29 14:55:06;;;;;;;;;;;;;;;11.21;74.40;100149.66;4953032;29;20389;-71
2023/12/29 14:58:09;;;;;;;;;;;;;;;11.23;74.38;100146.03;4953885;29;20050;-69
2023/12/29 15:01:12;;;;;;;;;;;;;;;11.41;74.01;100137.00;4953673;29;20446;-70
2023/12/29 15:04:15;;;;;;;;;;;;;;;11.52;73.32;100143.34;4953752;29;19945;-68
2023/12/29 15:07:19;;;;;;;;;;;;;;;11.32;73.93;100145.44;4953618;29;19926;-70
2023/12/29 15:10:22;;;;;;;;;;;;;;;11.30;73.93;100134.22;4953470;29;19925;-71
2023/12/29 15:13:26;;;;;;;;;;;;;;;11.09;74.91;100135.53;4953686;29;19921;-68
2023/12/29 15:16:29;;;;;;;;;;;;;;;11.14;75.22;100136.09;4953487;29;20036;-69
2023/12/29 15:19:32;;;;;;;;;;;;;;;11.09;75.46;100136.38;4953791;29;20437;-69
2023/12/29 15:22:35;;;;;;;;;;;;;;;11.08;75.99;100124.22;4953392;29;19968;-69
2023/12/29 15:25:39;;;;;;;;;;;;;;;11.12;75.36;100140.56;4953381;29;19937;-71
2023/12/29 15:28:43;;;;;;;;;;;;;;;11.09;76.02;100125.06;4953640;29;19937;-70
2023/12/29 15:31:47;;;;;;;;;;;;;;;11.00;76.25;100123.84;4953835;29;19941;-69
2023/12/29 15:34:50;;;;;;;;;;;;;;;10.97;77.12;100121.41;4954694;29;19921;-70
2023/12/29 15:37:54;;;;;;;;;;;;;;;11.04;77.08;100116.63;4954355;29;19970;-70
2023/12/29 15:40:58;;;;;;;;;;;;;;;11.06;77.12;100120.03;4954814;29;19921;-69
2023/12/29 15:44:03;;;;;;;;;;;;;;;11.14;76.95;100117.78;4954562;29;20378;-70
2023/12/29 15:47:07;;;;;;;;;;;;;;;11.04;77.45;100116.63;4954924;29;19978;-71
2023/12/29 15:50:10;;;;;;;;;;;;;;;11.01;77.40;100111.59;4954637;29;19926;-71
2023/12/29 15:53:13;;;;;;;;;;;;;;;11.00;77.49;100104.69;4954689;29;19921;-70